Terminal Aerodrome Forecast
Issued by NWS Bismarck, ND

Home | Current Version | Previous Version | Text Only | Print | Product List | Glossary On
Versions: 1 2 3 4 5 6 7 8 9 10 11 12 13 14 15 16 17
000
FTUS43 KBIS 201729
TAFISN
TAF
KISN 201729Z 2018/2118 VRB05KT P6SM SCT150
     FM210000 VRB03KT 1 1/2SM BR BKN045
     FM210800 00000KT 1/2SM FG BKN008
     FM211100 00000KT 3/4SM -FZDZ BR BKN008
     FM211600 VRB03KT 2SM -FZDZ BR OVC008=

USA.gov is the U.S. government's official web portal to all federal, state and local government web resources and services.